createdAt,value
2022-10-05T00:00:59.159Z,101831.84
2022-10-05T00:03:33.391Z,101829.88
2022-10-05T00:06:00.207Z,101828.06
2022-10-05T00:08:32.670Z,101841.31
2022-10-05T00:10:59.283Z,101829.03
2022-10-05T00:13:28.468Z,101832.50
2022-10-05T00:16:19.821Z,101842.78
2022-10-05T00:18:53.020Z,101837.34
2022-10-05T00:21:28.927Z,101839.31
2022-10-05T00:23:57.860Z,101835.09
2022-10-05T00:26:32.815Z,101812.34
2022-10-05T00:29:01.691Z,101823.44
2022-10-05T00:31:32.672Z,101809.72
2022-10-05T00:33:59.030Z,101812.53
2022-10-05T00:36:26.192Z,101812.91
2022-10-05T00:38:53.694Z,101811.91
2022-10-05T00:41:46.866Z,101816.13
2022-10-05T00:44:28.571Z,101809.31
2022-10-05T00:47:12.762Z,101800.63
2022-10-05T00:49:57.380Z,101804.06
2022-10-05T00:52:54.595Z,101805.06
2022-10-05T00:56:07.287Z,101804.06
2022-10-05T00:59:02.556Z,101804.88
2022-10-05T01:01:42.570Z,101803.25
2022-10-05T01:05:20.416Z,101790.16
2022-10-05T01:08:05.941Z,101786.13
2022-10-05T01:10:55.590Z,101784.69
2022-10-05T01:13:39.827Z,101790.84
2022-10-05T01:16:20.136Z,101784.19
2022-10-05T01:18:52.475Z,101791.63
2022-10-05T01:21:25.331Z,101790.97
2022-10-05T01:24:15.224Z,101777.47
2022-10-05T01:27:14.911Z,101771.06
2022-10-05T01:29:54.686Z,101761.59
2022-10-05T01:32:32.906Z,101749.50
2022-10-05T01:35:18.226Z,101747.91
2022-10-05T01:37:56.898Z,101743.66
2022-10-05T01:40:53.056Z,101740.59
2022-10-05T01:43:54.860Z,101735.75
2022-10-05T01:46:36.358Z,101726.47
2022-10-05T01:49:21.647Z,101733.25
2022-10-05T01:52:12.971Z,101738.50
2022-10-05T01:55:07.813Z,101724.63
2022-10-05T01:57:53.893Z,101718.13
2022-10-05T02:00:20.960Z,101715.50
2022-10-05T02:02:52.459Z,101698.41
2022-10-05T02:05:26.432Z,101699.94
2022-10-05T02:07:58.630Z,101701.94
2022-10-05T02:10:30.887Z,101697.06
2022-10-05T02:13:03.300Z,101702.47
2022-10-05T02:15:42.152Z,101688.78
2022-10-05T02:18:17.321Z,101691.59
2022-10-05T02:20:45.568Z,101698.78
2022-10-05T02:23:20.780Z,101690.94
2022-10-05T02:25:50.945Z,101696.19
2022-10-05T02:28:24.909Z,101691.97
2022-10-05T02:31:09.739Z,101685.09
2022-10-05T02:33:36.765Z,101693.97
2022-10-05T02:36:19.816Z,101669.78
2022-10-05T02:39:06.536Z,101670.34
2022-10-05T02:41:41.231Z,101686.44
2022-10-05T02:44:30.254Z,101676.97
2022-10-05T02:47:11.684Z,101677.16
2022-10-05T02:49:49.181Z,101666.69
2022-10-05T02:52:43.085Z,101657.22
2022-10-05T02:55:17.340Z,101647.78
2022-10-05T02:58:04.545Z,101653.38
2022-10-05T03:00:35.854Z,101655.34
2022-10-05T03:03:10.347Z,101673.03
2022-10-05T03:05:52.983Z,101671.25
2022-10-05T03:08:27.722Z,101673.63
2022-10-05T03:11:08.583Z,101672.66
2022-10-05T03:14:04.801Z,101654.34
2022-10-05T03:16:31.260Z,101669.25
2022-10-05T03:19:10.214Z,101673.63
2022-10-05T03:21:57.685Z,101665.63
2022-10-05T03:24:32.561Z,101671.66
2022-10-05T03:27:32.368Z,101673.09
2022-10-05T03:30:18.359Z,101674.72
2022-10-05T03:33:00.277Z,101671.91
2022-10-05T03:35:45.101Z,101669.50
2022-10-05T03:38:23.028Z,101681.38
2022-10-05T03:41:04.807Z,101674.16
2022-10-05T03:43:52.775Z,101669.72
2022-10-05T03:46:54.443Z,101674.78
2022-10-05T03:50:03.988Z,101664.13
2022-10-05T03:52:38.110Z,101669.78
2022-10-05T03:55:31.147Z,101672.03
2022-10-05T03:58:02.992Z,101666.00
2022-10-05T04:00:31.968Z,101667.59
2022-10-05T04:03:15.856Z,101661.22
2022-10-05T04:06:04.218Z,101658.59
2022-10-05T04:08:48.179Z,101660.41
2022-10-05T04:11:21.317Z,101644.72
2022-10-05T04:13:50.847Z,101643.91
2022-10-05T04:16:21.245Z,101643.72
2022-10-05T04:19:00.156Z,101646.78
2022-10-05T04:21:32.637Z,101646.78
2022-10-05T04:24:16.199Z,101646.97
2022-10-05T04:26:53.322Z,101648.56
2022-10-05T04:29:29.861Z,101636.69
2022-10-05T04:32:02.429Z,101630.44
2022-10-05T04:34:54.309Z,101627.84
2022-10-05T04:37:46.471Z,101628.84
2022-10-05T04:40:31.428Z,101630.44
2022-10-05T04:43:15.264Z,101616.75
2022-10-05T04:46:07.043Z,101630.63
2022-10-05T04:49:11.359Z,101610.56
2022-10-05T04:51:56.039Z,101612.16
2022-10-05T04:54:42.301Z,101611.16
2022-10-05T04:57:41.611Z,101624.22
2022-10-05T05:00:25.526Z,101625.22
2022-10-05T05:03:01.185Z,101619.00
2022-10-05T05:06:12.157Z,101608.56
2022-10-05T05:08:35.921Z,101612.78
2022-10-05T05:11:27.167Z,101602.34
2022-10-05T05:14:31.864Z,101594.50
2022-10-05T05:17:13.307Z,101599.53
2022-10-05T05:19:55.119Z,101596.28
2022-10-05T05:22:50.155Z,101592.47
2022-10-05T05:25:42.889Z,101589.88
2022-10-05T05:28:40.486Z,101585.44
2022-10-05T05:31:16.015Z,101597.72
2022-10-05T05:33:56.356Z,101590.84
2022-10-05T05:36:35.925Z,101591.88
2022-10-05T05:39:08.436Z,101589.25
2022-10-05T05:41:44.814Z,101597.72
2022-10-05T05:44:23.636Z,101597.72
2022-10-05T05:47:04.905Z,101594.50
2022-10-05T05:49:54.143Z,101595.47
2022-10-05T05:52:28.581Z,101591.88
2022-10-05T05:55:00.975Z,101584.41
2022-10-05T05:57:52.583Z,101594.88
2022-10-05T06:00:23.844Z,101591.41
2022-10-05T06:02:57.882Z,101587.81
2022-10-05T06:05:31.930Z,101589.44
2022-10-05T06:08:03.172Z,101585.03
2022-10-05T06:10:41.372Z,101596.28
2022-10-05T06:13:43.622Z,101591.03
2022-10-05T06:16:31.352Z,101599.91
2022-10-05T06:19:03.851Z,101594.69
2022-10-05T06:21:38.265Z,101599.91
2022-10-05T06:24:25.626Z,101598.88
2022-10-05T06:27:25.844Z,101598.88
2022-10-05T06:29:58.291Z,101600.34
2022-10-05T06:32:36.030Z,101593.28
2022-10-05T06:35:41.280Z,101593.91
2022-10-05T06:38:45.052Z,101598.75
2022-10-05T06:41:23.395Z,101594.34
2022-10-05T06:44:08.031Z,101599.19
2022-10-05T06:46:49.653Z,101599.66
2022-10-05T06:49:29.316Z,101602.88
2022-10-05T06:52:03.646Z,101607.72
2022-10-05T06:54:54.272Z,101606.56
2022-10-05T06:57:49.146Z,101603.75
2022-10-05T07:00:24.913Z,101608.97
2022-10-05T07:03:28.798Z,101606.16
2022-10-05T07:06:03.257Z,101613.00
2022-10-05T07:08:34.684Z,101613.63
2022-10-05T07:11:22.956Z,101601.16
2022-10-05T07:14:01.553Z,101603.41
2022-10-05T07:16:31.093Z,101606.81
2022-10-05T07:19:31.313Z,101596.78
2022-10-05T07:22:15.024Z,101604.84
2022-10-05T07:24:47.874Z,101602.66
2022-10-05T07:27:20.349Z,101600.03
2022-10-05T07:30:01.800Z,101606.28
2022-10-05T07:32:33.979Z,101602.47
2022-10-05T07:36:01.663Z,101604.88
2022-10-05T07:38:52.699Z,101608.72
2022-10-05T07:41:26.161Z,101608.09
2022-10-05T07:44:02.381Z,101602.88
2022-10-05T07:46:32.219Z,101608.31
2022-10-05T07:49:17.556Z,101606.09
2022-10-05T07:51:59.598Z,101604.09
2022-10-05T07:54:45.651Z,101600.09
2022-10-05T07:57:33.371Z,101608.56
2022-10-05T08:00:10.852Z,101591.88
2022-10-05T08:02:52.708Z,101590.66
2022-10-05T08:05:23.938Z,101595.88
2022-10-05T08:07:57.854Z,101592.28
2022-10-05T08:10:45.141Z,101586.47
2022-10-05T08:13:34.599Z,101593.13
2022-10-05T08:16:05.869Z,101590.91
2022-10-05T08:18:51.248Z,101583.31
2022-10-05T08:21:25.767Z,101589.16
2022-10-05T08:24:16.438Z,101582.28
2022-10-05T08:26:55.064Z,101575.47
2022-10-05T08:29:21.578Z,101583.53
2022-10-05T08:31:52.229Z,101573.47
2022-10-05T08:34:24.919Z,101574.09
2022-10-05T08:37:27.345Z,101565.25
2022-10-05T08:40:24.552Z,101565.84
2022-10-05T08:43:06.224Z,101573.09
2022-10-05T08:45:54.236Z,101569.88
2022-10-05T08:48:29.829Z,101568.66
2022-10-05T08:51:07.828Z,101575.16
2022-10-05T08:54:09.659Z,101562.66
2022-10-05T08:56:53.114Z,101551.78
2022-10-05T08:59:57.398Z,101558.47
2022-10-05T09:02:30.682Z,101555.44
2022-10-05T09:05:17.443Z,101552.06
2022-10-05T09:08:02.429Z,101551.03
2022-10-05T09:10:32.012Z,101547.63
2022-10-05T09:13:31.362Z,101546.00
2022-10-05T09:16:17.641Z,101546.25
2022-10-05T09:19:06.332Z,101540.56
2022-10-05T09:21:43.170Z,101537.78
2022-10-05T09:24:48.378Z,101535.97
2022-10-05T09:27:17.944Z,101532.13
2022-10-05T09:30:09.354Z,101541.81
2022-10-05T09:32:59.194Z,101536.38
2022-10-05T09:35:53.738Z,101530.31
2022-10-05T09:38:53.745Z,101527.66
2022-10-05T09:41:38.995Z,101525.81
2022-10-05T09:44:33.694Z,101509.84
2022-10-05T09:47:07.475Z,101513.47
2022-10-05T09:49:48.371Z,101511.22
2022-10-05T09:52:39.468Z,101515.63
2022-10-05T09:55:33.698Z,101510.75
2022-10-05T09:58:33.283Z,101512.78
2022-10-05T10:01:38.145Z,101506.88
2022-10-05T10:04:18.608Z,101504.44
2022-10-05T10:06:59.316Z,101499.53
2022-10-05T10:09:59.752Z,101502.75
2022-10-05T10:13:04.279Z,101498.81
2022-10-05T10:15:46.043Z,101494.13
2022-10-05T10:18:43.066Z,101496.31
2022-10-05T10:21:33.002Z,101487.16
2022-10-05T10:24:30.772Z,101489.16
2022-10-05T10:27:21.785Z,101487.13
2022-10-05T10:30:00.491Z,101484.28
2022-10-05T10:35:32.868Z,101488.00
2022-10-05T10:38:24.036Z,101483.19
2022-10-05T10:41:05.599Z,101473.09
2022-10-05T10:43:51.320Z,101479.53
2022-10-05T10:46:55.818Z,101476.47
2022-10-05T10:49:41.864Z,101477.50
2022-10-05T10:52:14.715Z,101478.50
2022-10-05T10:55:18.730Z,101481.56
2022-10-05T10:58:06.918Z,101479.16
2022-10-05T11:00:54.481Z,101466.41
2022-10-05T11:04:07.219Z,101461.53
2022-10-05T11:06:39.809Z,101464.94
2022-10-05T11:09:32.447Z,101466.41
2022-10-05T11:12:24.642Z,101458.56
2022-10-05T11:15:15.044Z,101461.19
2022-10-05T11:17:54.602Z,101463.22
2022-10-05T11:20:42.191Z,101458.13
2022-10-05T11:23:43.203Z,101464.22
2022-10-05T11:26:25.149Z,101456.91
2022-10-05T11:29:21.991Z,101459.06
2022-10-05T11:32:01.780Z,101451.88
2022-10-05T11:35:12.313Z,101442.53
2022-10-05T11:37:44.763Z,101446.78
2022-10-05T11:40:49.496Z,101441.13
2022-10-05T11:43:39.765Z,101437.66
2022-10-05T11:46:38.727Z,101435.44
2022-10-05T11:49:24.363Z,101438.28
2022-10-05T11:52:08.816Z,101433.25
2022-10-05T11:55:10.273Z,101432.63
2022-10-05T11:57:58.919Z,101435.66
2022-10-05T12:00:32.560Z,101433.16
2022-10-05T12:03:09.295Z,101423.16
2022-10-05T12:06:05.772Z,101433.41
2022-10-05T12:08:59.409Z,101427.06
2022-10-05T12:11:43.639Z,101429.09
2022-10-05T12:14:22.007Z,101418.88
2022-10-05T12:16:58.779Z,101412.94
2022-10-05T12:19:37.825Z,101418.22
2022-10-05T12:22:15.385Z,101409.31
2022-10-05T12:24:44.778Z,101416.59
2022-10-05T12:27:19.960Z,101418.22
2022-10-05T12:30:11.040Z,101411.56
2022-10-05T12:33:04.011Z,101416.66
2022-10-05T12:35:56.751Z,101402.81
2022-10-05T12:38:28.831Z,101401.50
2022-10-05T12:41:04.346Z,101401.03
2022-10-05T12:43:54.104Z,101394.47
2022-10-05T12:46:23.556Z,101397.97
2022-10-05T12:48:57.775Z,101402.78
2022-10-05T12:51:50.993Z,101394.53
2022-10-05T12:54:49.409Z,101397.28
2022-10-05T13:00:19.037Z,101396.13
2022-10-05T13:03:02.955Z,101400.81
2022-10-05T13:05:41.169Z,101391.31
2022-10-05T13:08:32.420Z,101393.25
2022-10-05T13:12:10.239Z,101400.66
2022-10-05T13:14:42.920Z,101399.50
2022-10-05T13:17:20.988Z,101394.00
2022-10-05T13:19:55.221Z,101396.53
2022-10-05T13:22:27.513Z,101390.75
2022-10-05T13:25:06.134Z,101402.50
2022-10-05T13:27:42.403Z,101393.59
2022-10-05T13:30:18.087Z,101397.47
2022-10-05T13:33:00.659Z,101396.78
2022-10-05T13:35:54.657Z,101393.75
2022-10-05T13:38:56.444Z,101395.09
2022-10-05T13:41:51.148Z,101397.53
2022-10-05T13:44:39.800Z,101398.19
2022-10-05T13:47:31.320Z,101394.66
2022-10-05T13:50:02.063Z,101395.50
2022-10-05T13:52:42.272Z,101393.59
2022-10-05T13:55:20.833Z,101389.09
2022-10-05T13:58:05.850Z,101389.22
2022-10-05T14:00:37.366Z,101389.72
2022-10-05T14:03:22.634Z,101382.47
2022-10-05T14:06:01.395Z,101389.72
2022-10-05T14:08:52.031Z,101387.75
2022-10-05T14:11:32.591Z,101379.06
2022-10-05T14:14:23.468Z,101386.75
2022-10-05T14:16:51.880Z,101384.69
2022-10-05T14:19:33.466Z,101380.00
2022-10-05T14:22:24.518Z,101381.84
2022-10-05T14:24:55.550Z,101380.13
2022-10-05T14:27:23.956Z,101387.69
2022-10-05T14:30:20.460Z,101386.53
2022-10-05T14:33:05.347Z,101390.56
2022-10-05T14:35:48.880Z,101397.84
2022-10-05T14:38:29.440Z,101397.22
2022-10-05T14:41:15.940Z,101395.34
2022-10-05T14:43:51.282Z,101412.56
2022-10-05T14:46:21.817Z,101415.47
2022-10-05T14:49:11.015Z,101417.59
2022-10-05T14:51:38.257Z,101412.44
2022-10-05T14:54:30.339Z,101419.63
2022-10-05T14:57:33.016Z,101426.47
2022-10-05T15:00:08.658Z,101417.25
2022-10-05T15:03:06.363Z,101411.84
2022-10-05T15:05:52.272Z,101411.63
2022-10-05T15:08:41.395Z,101411.13
2022-10-05T15:11:32.651Z,101425.22
2022-10-05T15:14:00.466Z,101410.69
2022-10-05T15:16:33.088Z,101418.50
2022-10-05T15:19:20.837Z,101416.47
2022-10-05T15:22:13.239Z,101416.06
2022-10-05T15:25:01.654Z,101410.88
2022-10-05T15:27:53.882Z,101418.84
2022-10-05T15:30:22.325Z,101410.81
2022-10-05T15:33:11.094Z,101406.59
2022-10-05T15:35:49.718Z,101413.53
2022-10-05T15:38:31.774Z,101422.28
2022-10-05T15:41:03.674Z,101422.91
2022-10-05T15:43:58.587Z,101424.97
2022-10-05T15:46:40.033Z,101412.25
2022-10-05T15:49:36.842Z,101420.13
2022-10-05T15:52:41.861Z,101435.53
2022-10-05T15:55:21.728Z,101431.50
2022-10-05T15:58:16.077Z,101421.78
2022-10-05T16:00:48.492Z,101413.31
2022-10-05T16:03:40.416Z,101429.66
2022-10-05T16:06:33.419Z,101425.66
2022-10-05T16:09:09.409Z,101431.91
2022-10-05T16:11:45.159Z,101427.09
2022-10-05T16:14:20.594Z,101431.75
2022-10-05T16:16:59.707Z,101424.72
2022-10-05T16:19:35.113Z,101433.44
2022-10-05T16:22:22.149Z,101433.28
2022-10-05T16:25:18.422Z,101434.13
2022-10-05T16:28:09.990Z,101445.06
2022-10-05T16:30:58.592Z,101448.13
2022-10-05T16:33:55.084Z,101442.47
2022-10-05T16:36:47.907Z,101445.53
2022-10-05T16:39:44.968Z,101443.34
2022-10-05T16:42:29.378Z,101450.59
2022-10-05T16:45:16.159Z,101443.97
2022-10-05T16:48:20.905Z,101455.88
2022-10-05T16:51:27.107Z,101453.88
2022-10-05T16:53:59.558Z,101455.91
2022-10-05T16:56:34.118Z,101450.06
2022-10-05T16:59:37.977Z,101453.88
2022-10-05T17:02:07.261Z,101461.16
2022-10-05T17:05:11.632Z,101461.56
2022-10-05T17:07:57.001Z,101456.53
2022-10-05T17:10:38.826Z,101464.63
2022-10-05T17:13:11.385Z,101469.06
2022-10-05T17:15:55.477Z,101463.22
2022-10-05T17:18:29.297Z,101473.72
2022-10-05T17:21:23.718Z,101465.22
2022-10-05T17:27:52.202Z,101466.06
2022-10-05T17:30:36.126Z,101467.06
2022-10-05T17:33:29.694Z,101471.91
2022-10-05T17:36:06.495Z,101478.38
2022-10-05T17:38:36.691Z,101481.81
2022-10-05T17:41:11.277Z,101492.53
2022-10-05T17:43:38.523Z,101492.53
2022-10-05T17:46:07.239Z,101490.91
2022-10-05T17:57:25.136Z,101503.63
2022-10-05T17:59:57.545Z,101494.94
2022-10-05T18:06:29.692Z,101505.22
2022-10-05T18:09:16.938Z,101499.97
2022-10-05T18:11:45.756Z,101502.19
2022-10-05T18:14:24.732Z,101495.34
2022-10-05T18:17:00.199Z,101509.25
2022-10-05T18:19:31.308Z,101515.09
2022-10-05T18:22:16.429Z,101514.09
2022-10-05T18:28:34.510Z,101513.91
2022-10-05T18:31:30.866Z,101515.72
2022-10-05T18:34:02.320Z,101519.16
2022-10-05T18:37:07.648Z,101521.78
2022-10-05T18:39:36.876Z,101523.19
2022-10-05T18:42:28.180Z,101523.56
2022-10-05T18:45:17.904Z,101533.25
2022-10-05T18:48:17.039Z,101534.06
2022-10-05T18:50:47.994Z,101541.94
2022-10-05T18:53:31.308Z,101540.34
2022-10-05T18:56:05.441Z,101539.31
2022-10-05T18:58:50.987Z,101556.66
2022-10-05T19:01:49.907Z,101551.44
2022-10-05T19:04:47.489Z,101555.66
2022-10-05T19:07:43.903Z,101562.50
2022-10-05T19:10:28.339Z,101567.56
2022-10-05T19:13:09.066Z,101567.56
2022-10-05T19:16:10.085Z,101571.59
2022-10-05T19:19:01.015Z,101569.56
2022-10-05T19:21:41.312Z,101582.69
2022-10-05T19:24:47.711Z,101580.47
2022-10-05T19:27:54.544Z,101590.97
2022-10-05T19:30:25.116Z,101586.53
2022-10-05T19:33:04.915Z,101594.22
2022-10-05T19:35:49.682Z,101608.72
2022-10-05T19:38:25.997Z,101616.78
2022-10-05T19:41:04.512Z,101628.91
2022-10-05T19:43:36.940Z,101670.91
2022-10-05T19:46:30.777Z,101681.38
2022-10-05T19:48:57.687Z,101706.50
2022-10-05T19:51:25.318Z,101718.19
2022-10-05T19:53:55.825Z,101715.44
2022-10-05T19:56:25.330Z,101725.19
2022-10-05T19:58:56.546Z,101711.19
2022-10-05T20:01:30.930Z,101732.94
2022-10-05T20:03:58.085Z,101732.00
2022-10-05T20:06:31.481Z,101741.94
2022-10-05T20:09:01.459Z,101742.25
2022-10-05T20:11:28.384Z,101749.41
2022-10-05T20:13:59.600Z,101754.09
2022-10-05T20:16:44.919Z,101760.91
2022-10-05T20:19:52.025Z,101767.66
2022-10-05T20:22:24.432Z,101783.88
2022-10-05T20:24:52.758Z,101782.44
2022-10-05T20:27:48.469Z,101805.34
2022-10-05T20:30:18.411Z,101809.28
2022-10-05T20:32:52.245Z,101806.84
2022-10-05T20:35:22.228Z,101815.88
2022-10-05T20:37:49.904Z,101823.91
2022-10-05T20:40:18.678Z,101815.22
2022-10-05T20:42:45.207Z,101807.56
2022-10-05T20:45:12.954Z,101819.03
2022-10-05T20:47:40.409Z,101821.66
2022-10-05T20:50:09.078Z,101830.47
2022-10-05T20:52:39.570Z,101838.28
2022-10-05T20:55:08.894Z,101841.25
2022-10-05T20:57:38.427Z,101837.69
2022-10-05T21:00:05.713Z,101854.94
2022-10-05T21:02:32.061Z,101871.63
2022-10-05T21:04:58.456Z,101871.81
2022-10-05T21:07:25.688Z,101882.44
2022-10-05T21:09:52.116Z,101901.06
2022-10-05T21:12:18.607Z,101902.56
2022-10-05T21:14:45.329Z,101908.88
2022-10-05T21:17:12.433Z,101903.56
2022-10-05T21:19:39.407Z,101911.47
2022-10-05T21:22:07.731Z,101903.97
2022-10-05T21:24:40.255Z,101904.66
2022-10-05T21:27:06.989Z,101904.38
2022-10-05T21:29:35.254Z,101911.91
2022-10-05T21:32:01.798Z,101905.22
2022-10-05T21:34:28.663Z,101909.97
2022-10-05T21:36:55.047Z,101911.13
2022-10-05T21:39:21.413Z,101917.84
2022-10-05T21:41:49.610Z,101911.19
2022-10-05T21:44:16.363Z,101923.59
2022-10-05T21:46:42.848Z,101926.53
2022-10-05T21:49:09.794Z,101927.06
2022-10-05T21:51:36.732Z,101932.59
2022-10-05T21:54:08.627Z,101939.97
2022-10-05T21:56:38.357Z,101949.94
2022-10-05T21:59:07.668Z,101944.41
2022-10-05T22:01:35.877Z,101948.84
2022-10-05T22:04:06.756Z,101962.72
2022-10-05T22:06:35.144Z,101957.84
2022-10-05T22:09:02.151Z,101969.63
2022-10-05T22:11:29.031Z,101976.97
2022-10-05T22:14:02.055Z,101972.41
2022-10-05T22:16:31.716Z,101982.53
2022-10-05T22:18:59.040Z,101984.00
2022-10-05T22:21:25.582Z,101996.72
2022-10-05T22:23:51.973Z,102000.28
2022-10-05T22:26:21.203Z,102005.66
2022-10-05T22:28:48.435Z,102007.78
2022-10-05T22:31:15.780Z,102019.38
2022-10-05T22:33:42.536Z,102022.16
2022-10-05T22:36:09.840Z,102023.28
2022-10-05T22:38:36.812Z,102035.66
2022-10-05T22:41:03.757Z,102033.22
2022-10-05T22:43:30.120Z,102037.94
2022-10-05T22:45:56.586Z,102043.31
2022-10-05T22:48:23.097Z,102045.09
2022-10-05T22:50:49.465Z,102052.09
2022-10-05T22:53:15.963Z,102058.28
2022-10-05T22:55:42.329Z,102056.84
2022-10-05T22:58:08.739Z,102064.81
2022-10-05T23:00:56.894Z,102070.97
2022-10-05T23:03:21.479Z,102077.50
2022-10-05T23:05:47.823Z,102077.66
2022-10-05T23:08:14.200Z,102080.44
2022-10-05T23:10:40.559Z,102077.00
2022-10-05T23:13:07.311Z,102084.31
2022-10-05T23:15:34.444Z,102092.44
2022-10-05T23:18:00.796Z,102097.19
2022-10-05T23:20:27.154Z,102091.44
2022-10-05T23:22:53.727Z,102103.66
2022-10-05T23:25:22.169Z,102098.78
2022-10-05T23:27:48.678Z,102106.91
2022-10-05T23:30:15.136Z,102119.44
2022-10-05T23:32:43.007Z,102114.22
2022-10-05T23:35:11.593Z,102116.16
2022-10-05T23:37:43.503Z,102122.50
2022-10-05T23:40:12.243Z,102126.06
2022-10-05T23:42:41.999Z,102126.22
2022-10-05T23:45:10.383Z,102134.34
2022-10-05T23:47:37.022Z,102147.53
2022-10-05T23:50:05.265Z,102151.28
2022-10-05T23:52:31.647Z,102155.00
2022-10-05T23:54:57.998Z,102160.34
2022-10-05T23:57:24.385Z,102164.25
2022-10-05T23:59:50.780Z,102167.81
